sensor_id;sensor_type;location;lat;lon;timestamp;P1;durP1;ratioP1;P2;durP2;ratioP2
15049;SDS011;7622;42.724;23.250;2022-11-15T00:00:43;56.03;;;29.13;;
15049;SDS011;7622;42.724;23.250;2022-11-15T00:03:10;72.00;;;33.97;;
15049;SDS011;7622;42.724;23.250;2022-11-15T00:05:41;57.10;;;30.63;;
15049;SDS011;7622;42.724;23.250;2022-11-15T00:08:08;51.87;;;29.70;;
15049;SDS011;7622;42.724;23.250;2022-11-15T00:10:35;52.07;;;27.47;;
15049;SDS011;7622;42.724;23.250;2022-11-15T00:13:04;59.33;;;30.13;;
15049;SDS011;7622;42.724;23.250;2022-11-15T00:15:31;58.80;;;30.80;;
15049;SDS011;7622;42.724;23.250;2022-11-15T00:18:00;63.03;;;29.90;;
15049;SDS011;7622;42.724;23.250;2022-11-15T00:20:26;63.57;;;32.60;;
15049;SDS011;7622;42.724;23.250;2022-11-15T00:22:55;56.80;;;29.87;;
15049;SDS011;7622;42.724;23.250;2022-11-15T00:25:22;59.80;;;28.47;;
15049;SDS011;7622;42.724;23.250;2022-11-15T00:27:49;54.77;;;27.90;;
15049;SDS011;7622;42.724;23.250;2022-11-15T00:30:16;57.50;;;30.10;;
15049;SDS011;7622;42.724;23.250;2022-11-15T00:32:43;56.57;;;29.50;;
15049;SDS011;7622;42.724;23.250;2022-11-15T00:35:10;49.87;;;27.30;;
15049;SDS011;7622;42.724;23.250;2022-11-15T00:37:37;53.07;;;27.70;;
15049;SDS011;7622;42.724;23.250;2022-11-15T00:40:05;44.47;;;26.67;;
15049;SDS011;7622;42.724;23.250;2022-11-15T00:42:33;53.20;;;26.87;;
15049;SDS011;7622;42.724;23.250;2022-11-15T00:45:00;51.37;;;26.33;;
15049;SDS011;7622;42.724;23.250;2022-11-15T00:47:27;49.23;;;26.73;;
15049;SDS011;7622;42.724;23.250;2022-11-15T00:49:53;49.90;;;27.60;;
15049;SDS011;7622;42.724;23.250;2022-11-15T00:52:20;56.97;;;30.50;;
15049;SDS011;7622;42.724;23.250;2022-11-15T00:54:47;57.23;;;29.83;;
15049;SDS011;7622;42.724;23.250;2022-11-15T00:57:15;60.70;;;29.87;;
15049;SDS011;7622;42.724;23.250;2022-11-15T00:59:42;61.83;;;31.80;;
15049;SDS011;7622;42.724;23.250;2022-11-15T01:02:09;74.13;;;32.53;;
15049;SDS011;7622;42.724;23.250;2022-11-15T01:04:35;69.53;;;33.03;;
15049;SDS011;7622;42.724;23.250;2022-11-15T01:07:02;66.03;;;33.10;;
15049;SDS011;7622;42.724;23.250;2022-11-15T01:09:29;62.57;;;33.17;;
15049;SDS011;7622;42.724;23.250;2022-11-15T01:11:55;61.23;;;31.33;;
15049;SDS011;7622;42.724;23.250;2022-11-15T01:14:24;63.40;;;32.30;;
15049;SDS011;7622;42.724;23.250;2022-11-15T01:16:50;58.60;;;30.97;;
15049;SDS011;7622;42.724;23.250;2022-11-15T01:19:17;58.73;;;30.73;;
15049;SDS011;7622;42.724;23.250;2022-11-15T01:21:44;55.37;;;29.43;;
15049;SDS011;7622;42.724;23.250;2022-11-15T01:24:11;52.77;;;29.83;;
15049;SDS011;7622;42.724;23.250;2022-11-15T01:26:38;68.27;;;31.90;;
15049;SDS011;7622;42.724;23.250;2022-11-15T01:29:05;67.47;;;31.57;;
15049;SDS011;7622;42.724;23.250;2022-11-15T01:31:33;62.63;;;31.50;;
15049;SDS011;7622;42.724;23.250;2022-11-15T01:34:00;66.60;;;29.60;;
15049;SDS011;7622;42.724;23.250;2022-11-15T01:36:28;62.27;;;31.53;;
15049;SDS011;7622;42.724;23.250;2022-11-15T01:38:55;63.73;;;33.07;;
15049;SDS011;7622;42.724;23.250;2022-11-15T01:41:24;57.73;;;31.30;;
15049;SDS011;7622;42.724;23.250;2022-11-15T01:43:53;59.63;;;31.90;;
15049;SDS011;7622;42.724;23.250;2022-11-15T01:46:23;65.53;;;30.63;;
15049;SDS011;7622;42.724;23.250;2022-11-15T01:48:56;54.70;;;29.53;;
15049;SDS011;7622;42.724;23.250;2022-11-15T01:51:27;59.53;;;31.20;;
15049;SDS011;7622;42.724;23.250;2022-11-15T01:53:59;59.67;;;30.90;;
15049;SDS011;7622;42.724;23.250;2022-11-15T01:56:29;62.03;;;30.57;;
15049;SDS011;7622;42.724;23.250;2022-11-15T01:58:59;63.87;;;30.83;;
15049;SDS011;7622;42.724;23.250;2022-11-15T02:01:29;58.43;;;30.37;;
15049;SDS011;7622;42.724;23.250;2022-11-15T02:03:59;63.40;;;30.97;;
15049;SDS011;7622;42.724;23.250;2022-11-15T02:06:30;62.50;;;31.60;;
15049;SDS011;7622;42.724;23.250;2022-11-15T02:08:57;61.20;;;32.00;;
15049;SDS011;7622;42.724;23.250;2022-11-15T02:11:25;67.60;;;32.90;;
15049;SDS011;7622;42.724;23.250;2022-11-15T02:13:52;65.03;;;31.70;;
15049;SDS011;7622;42.724;23.250;2022-11-15T02:16:22;61.87;;;31.73;;
15049;SDS011;7622;42.724;23.250;2022-11-15T02:19:02;52.77;;;30.13;;
15049;SDS011;7622;42.724;23.250;2022-11-15T02:21:41;58.17;;;30.17;;
15049;SDS011;7622;42.724;23.250;2022-11-15T02:27:40;61.27;;;30.80;;
15049;SDS011;7622;42.724;23.250;2022-11-15T02:30:23;56.50;;;30.10;;
15049;SDS011;7622;42.724;23.250;2022-11-15T02:32:52;64.27;;;29.57;;
15049;SDS011;7622;42.724;23.250;2022-11-15T02:35:27;60.67;;;31.50;;
15049;SDS011;7622;42.724;23.250;2022-11-15T02:37:59;59.87;;;31.47;;
15049;SDS011;7622;42.724;23.250;2022-11-15T02:40:34;60.50;;;31.00;;
15049;SDS011;7622;42.724;23.250;2022-11-15T02:43:08;64.40;;;31.70;;
15049;SDS011;7622;42.724;23.250;2022-11-15T02:45:56;65.33;;;29.50;;
15049;SDS011;7622;42.724;23.250;2022-11-15T02:48:28;54.67;;;28.77;;
15049;SDS011;7622;42.724;23.250;2022-11-15T02:50:57;51.93;;;28.83;;
15049;SDS011;7622;42.724;23.250;2022-11-15T02:53:25;58.67;;;28.80;;
15049;SDS011;7622;42.724;23.250;2022-11-15T02:55:52;57.03;;;29.27;;
15049;SDS011;7622;42.724;23.250;2022-11-15T03:01:23;54.20;;;28.23;;
15049;SDS011;7622;42.724;23.250;2022-11-15T03:04:06;52.13;;;27.73;;
15049;SDS011;7622;42.724;23.250;2022-11-15T03:06:47;52.50;;;29.17;;
15049;SDS011;7622;42.724;23.250;2022-11-15T03:09:19;54.27;;;28.10;;
15049;SDS011;7622;42.724;23.250;2022-11-15T03:11:56;47.47;;;27.30;;
15049;SDS011;7622;42.724;23.250;2022-11-15T03:14:28;43.67;;;24.80;;
15049;SDS011;7622;42.724;23.250;2022-11-15T03:17:02;51.93;;;27.37;;
15049;SDS011;7622;42.724;23.250;2022-11-15T03:19:39;49.03;;;26.47;;
15049;SDS011;7622;42.724;23.250;2022-11-15T03:22:11;62.90;;;29.53;;
15049;SDS011;7622;42.724;23.250;2022-11-15T03:24:42;51.20;;;27.50;;
15049;SDS011;7622;42.724;23.250;2022-11-15T03:27:11;50.47;;;27.63;;
15049;SDS011;7622;42.724;23.250;2022-11-15T03:29:42;45.83;;;25.20;;
15049;SDS011;7622;42.724;23.250;2022-11-15T03:32:15;47.93;;;26.00;;
15049;SDS011;7622;42.724;23.250;2022-11-15T03:34:46;54.63;;;28.07;;
15049;SDS011;7622;42.724;23.250;2022-11-15T03:37:18;63.70;;;28.20;;
15049;SDS011;7622;42.724;23.250;2022-11-15T03:39:48;79.67;;;29.67;;
15049;SDS011;7622;42.724;23.250;2022-11-15T03:42:17;74.57;;;31.27;;
15049;SDS011;7622;42.724;23.250;2022-11-15T03:44:51;62.07;;;28.37;;
15049;SDS011;7622;42.724;23.250;2022-11-15T03:47:23;86.97;;;30.87;;
15049;SDS011;7622;42.724;23.250;2022-11-15T03:49:55;90.13;;;31.90;;
15049;SDS011;7622;42.724;23.250;2022-11-15T03:52:26;76.70;;;24.90;;
15049;SDS011;7622;42.724;23.250;2022-11-15T03:54:58;87.67;;;27.57;;
15049;SDS011;7622;42.724;23.250;2022-11-15T03:57:27;80.57;;;28.23;;
15049;SDS011;7622;42.724;23.250;2022-11-15T03:59:54;105.03;;;26.90;;
15049;SDS011;7622;42.724;23.250;2022-11-15T04:02:22;123.50;;;25.53;;
15049;SDS011;7622;42.724;23.250;2022-11-15T04:04:49;118.03;;;28.10;;
15049;SDS011;7622;42.724;23.250;2022-11-15T04:07:16;81.60;;;29.10;;
15049;SDS011;7622;42.724;23.250;2022-11-15T04:09:42;106.30;;;28.83;;
15049;SDS011;7622;42.724;23.250;2022-11-15T04:12:27;77.13;;;28.17;;
15049;SDS011;7622;42.724;23.250;2022-11-15T04:14:57;70.33;;;29.50;;
15049;SDS011;7622;42.724;23.250;2022-11-15T04:17:36;70.80;;;27.73;;
15049;SDS011;7622;42.724;23.250;2022-11-15T04:20:05;82.10;;;29.37;;
15049;SDS011;7622;42.724;23.250;2022-11-15T04:22:51;83.47;;;34.83;;
15049;SDS011;7622;42.724;23.250;2022-11-15T04:25:36;81.53;;;34.57;;
15049;SDS011;7622;42.724;23.250;2022-11-15T04:28:03;82.77;;;34.40;;
15049;SDS011;7622;42.724;23.250;2022-11-15T04:30:30;84.27;;;34.23;;
15049;SDS011;7622;42.724;23.250;2022-11-15T04:32:58;79.37;;;33.67;;
15049;SDS011;7622;42.724;23.250;2022-11-15T04:35:25;73.43;;;35.00;;
15049;SDS011;7622;42.724;23.250;2022-11-15T04:37:52;72.13;;;33.07;;
15049;SDS011;7622;42.724;23.250;2022-11-15T04:40:19;75.30;;;34.67;;
15049;SDS011;7622;42.724;23.250;2022-11-15T04:42:46;95.13;;;36.37;;
15049;SDS011;7622;42.724;23.250;2022-11-15T04:45:13;80.07;;;37.03;;
15049;SDS011;7622;42.724;23.250;2022-11-15T04:47:40;98.37;;;39.33;;
15049;SDS011;7622;42.724;23.250;2022-11-15T04:50:11;104.87;;;40.30;;
15049;SDS011;7622;42.724;23.250;2022-11-15T04:52:38;106.77;;;40.60;;
15049;SDS011;7622;42.724;23.250;2022-11-15T04:55:06;104.30;;;40.80;;
15049;SDS011;7622;42.724;23.250;2022-11-15T04:57:33;116.53;;;42.23;;
15049;SDS011;7622;42.724;23.250;2022-11-15T05:00:00;119.53;;;41.33;;
15049;SDS011;7622;42.724;23.250;2022-11-15T05:02:28;128.17;;;43.83;;
15049;SDS011;7622;42.724;23.250;2022-11-15T05:05:16;120.60;;;45.03;;
15049;SDS011;7622;42.724;23.250;2022-11-15T05:07:42;123.30;;;39.93;;
15049;SDS011;7622;42.724;23.250;2022-11-15T05:10:08;115.83;;;38.70;;
15049;SDS011;7622;42.724;23.250;2022-11-15T05:12:35;129.63;;;40.77;;
15049;SDS011;7622;42.724;23.250;2022-11-15T05:15:03;111.20;;;39.93;;
15049;SDS011;7622;42.724;23.250;2022-11-15T05:17:30;128.77;;;38.57;;
15049;SDS011;7622;42.724;23.250;2022-11-15T05:19:57;123.13;;;37.80;;
15049;SDS011;7622;42.724;23.250;2022-11-15T05:22:25;118.73;;;36.33;;
15049;SDS011;7622;42.724;23.250;2022-11-15T05:24:53;103.67;;;35.10;;
15049;SDS011;7622;42.724;23.250;2022-11-15T05:27:20;125.50;;;36.43;;
15049;SDS011;7622;42.724;23.250;2022-11-15T05:29:46;107.53;;;37.00;;
15049;SDS011;7622;42.724;23.250;2022-11-15T05:32:13;121.57;;;39.40;;
15049;SDS011;7622;42.724;23.250;2022-11-15T05:34:40;108.27;;;36.30;;
15049;SDS011;7622;42.724;23.250;2022-11-15T05:37:07;106.57;;;34.63;;
15049;SDS011;7622;42.724;23.250;2022-11-15T05:39:35;102.63;;;34.57;;
15049;SDS011;7622;42.724;23.250;2022-11-15T05:42:02;112.37;;;36.20;;
15049;SDS011;7622;42.724;23.250;2022-11-15T05:44:35;88.77;;;32.77;;
15049;SDS011;7622;42.724;23.250;2022-11-15T05:47:03;103.77;;;31.23;;
15049;SDS011;7622;42.724;23.250;2022-11-15T05:49:34;97.80;;;32.27;;
15049;SDS011;7622;42.724;23.250;2022-11-15T05:52:05;99.47;;;33.33;;
15049;SDS011;7622;42.724;23.250;2022-11-15T05:54:37;67.20;;;26.80;;
15049;SDS011;7622;42.724;23.250;2022-11-15T05:57:04;101.50;;;34.33;;
15049;SDS011;7622;42.724;23.250;2022-11-15T05:59:32;96.27;;;30.27;;
15049;SDS011;7622;42.724;23.250;2022-11-15T06:02:00;81.37;;;31.70;;
15049;SDS011;7622;42.724;23.250;2022-11-15T06:04:27;112.10;;;31.60;;
15049;SDS011;7622;42.724;23.250;2022-11-15T06:06:54;92.27;;;30.73;;
15049;SDS011;7622;42.724;23.250;2022-11-15T06:09:21;113.63;;;31.87;;
15049;SDS011;7622;42.724;23.250;2022-11-15T06:11:49;110.70;;;33.23;;
15049;SDS011;7622;42.724;23.250;2022-11-15T06:14:16;99.63;;;32.87;;
15049;SDS011;7622;42.724;23.250;2022-11-15T06:16:43;84.63;;;33.33;;
15049;SDS011;7622;42.724;23.250;2022-11-15T06:19:10;95.40;;;31.37;;
15049;SDS011;7622;42.724;23.250;2022-11-15T06:21:36;99.53;;;30.83;;
15049;SDS011;7622;42.724;23.250;2022-11-15T06:24:04;98.47;;;31.97;;
15049;SDS011;7622;42.724;23.250;2022-11-15T06:26:32;97.17;;;31.40;;
15049;SDS011;7622;42.724;23.250;2022-11-15T06:29:00;98.97;;;31.57;;
15049;SDS011;7622;42.724;23.250;2022-11-15T06:31:28;94.17;;;31.73;;
15049;SDS011;7622;42.724;23.250;2022-11-15T06:33:55;85.87;;;31.07;;
15049;SDS011;7622;42.724;23.250;2022-11-15T06:36:22;81.70;;;29.50;;
15049;SDS011;7622;42.724;23.250;2022-11-15T06:38:49;144.13;;;35.00;;
15049;SDS011;7622;42.724;23.250;2022-11-15T06:41:16;91.93;;;32.83;;
15049;SDS011;7622;42.724;23.250;2022-11-15T06:43:43;98.27;;;31.73;;
15049;SDS011;7622;42.724;23.250;2022-11-15T06:46:11;118.93;;;45.70;;
15049;SDS011;7622;42.724;23.250;2022-11-15T06:48:38;121.57;;;33.07;;
15049;SDS011;7622;42.724;23.250;2022-11-15T06:51:05;90.80;;;30.67;;
15049;SDS011;7622;42.724;23.250;2022-11-15T06:53:32;109.03;;;31.23;;
15049;SDS011;7622;42.724;23.250;2022-11-15T06:55:59;125.83;;;31.73;;
15049;SDS011;7622;42.724;23.250;2022-11-15T06:58:26;94.30;;;27.80;;
15049;SDS011;7622;42.724;23.250;2022-11-15T07:00:57;138.73;;;34.97;;
15049;SDS011;7622;42.724;23.250;2022-11-15T07:03:26;107.13;;;33.73;;
15049;SDS011;7622;42.724;23.250;2022-11-15T07:05:54;110.87;;;31.63;;
15049;SDS011;7622;42.724;23.250;2022-11-15T07:08:22;88.73;;;31.37;;
15049;SDS011;7622;42.724;23.250;2022-11-15T07:10:50;108.43;;;31.90;;
15049;SDS011;7622;42.724;23.250;2022-11-15T07:13:17;90.23;;;31.37;;
15049;SDS011;7622;42.724;23.250;2022-11-15T07:15:43;87.30;;;30.50;;
15049;SDS011;7622;42.724;23.250;2022-11-15T07:18:10;83.80;;;29.40;;
15049;SDS011;7622;42.724;23.250;2022-11-15T07:20:38;91.47;;;29.83;;
15049;SDS011;7622;42.724;23.250;2022-11-15T07:23:05;84.80;;;29.87;;
15049;SDS011;7622;42.724;23.250;2022-11-15T07:25:32;79.53;;;29.30;;
15049;SDS011;7622;42.724;23.250;2022-11-15T07:27:59;69.67;;;29.00;;
15049;SDS011;7622;42.724;23.250;2022-11-15T07:30:27;83.07;;;30.47;;
15049;SDS011;7622;42.724;23.250;2022-11-15T07:32:54;71.90;;;29.17;;
15049;SDS011;7622;42.724;23.250;2022-11-15T07:35:20;87.93;;;29.53;;
15049;SDS011;7622;42.724;23.250;2022-11-15T07:37:54;67.67;;;28.30;;
15049;SDS011;7622;42.724;23.250;2022-11-15T07:40:22;78.73;;;29.67;;
15049;SDS011;7622;42.724;23.250;2022-11-15T07:42:48;84.70;;;30.33;;
15049;SDS011;7622;42.724;23.250;2022-11-15T07:45:22;97.83;;;34.27;;
15049;SDS011;7622;42.724;23.250;2022-11-15T07:47:50;99.27;;;35.17;;
15049;SDS011;7622;42.724;23.250;2022-11-15T07:50:17;87.17;;;34.00;;
15049;SDS011;7622;42.724;23.250;2022-11-15T07:52:45;92.27;;;34.13;;
15049;SDS011;7622;42.724;23.250;2022-11-15T07:55:13;101.20;;;34.57;;
15049;SDS011;7622;42.724;23.250;2022-11-15T07:57:40;85.80;;;30.27;;
15049;SDS011;7622;42.724;23.250;2022-11-15T08:00:07;69.03;;;27.87;;
15049;SDS011;7622;42.724;23.250;2022-11-15T08:02:34;72.90;;;28.30;;
15049;SDS011;7622;42.724;23.250;2022-11-15T08:05:01;70.77;;;29.17;;
15049;SDS011;7622;42.724;23.250;2022-11-15T08:07:29;79.27;;;28.40;;
15049;SDS011;7622;42.724;23.250;2022-11-15T08:09:56;85.13;;;28.90;;
15049;SDS011;7622;42.724;23.250;2022-11-15T08:12:27;80.07;;;29.60;;
15049;SDS011;7622;42.724;23.250;2022-11-15T08:14:54;73.30;;;28.67;;
15049;SDS011;7622;42.724;23.250;2022-11-15T08:17:21;70.70;;;29.47;;
15049;SDS011;7622;42.724;23.250;2022-11-15T08:19:48;60.13;;;27.17;;
15049;SDS011;7622;42.724;23.250;2022-11-15T08:22:15;64.03;;;29.67;;
15049;SDS011;7622;42.724;23.250;2022-11-15T08:24:42;65.17;;;27.20;;
15049;SDS011;7622;42.724;23.250;2022-11-15T08:27:08;70.67;;;29.23;;
15049;SDS011;7622;42.724;23.250;2022-11-15T08:29:41;69.73;;;27.67;;
15049;SDS011;7622;42.724;23.250;2022-11-15T08:32:09;82.07;;;40.13;;
15049;SDS011;7622;42.724;23.250;2022-11-15T08:34:36;74.40;;;32.03;;
15049;SDS011;7622;42.724;23.250;2022-11-15T08:37:03;61.77;;;27.73;;
15049;SDS011;7622;42.724;23.250;2022-11-15T08:39:30;69.87;;;30.53;;
15049;SDS011;7622;42.724;23.250;2022-11-15T08:41:57;86.43;;;31.70;;
15049;SDS011;7622;42.724;23.250;2022-11-15T08:44:23;77.57;;;31.60;;
15049;SDS011;7622;42.724;23.250;2022-11-15T08:46:52;74.77;;;32.20;;
15049;SDS011;7622;42.724;23.250;2022-11-15T08:49:18;73.30;;;32.07;;
15049;SDS011;7622;42.724;23.250;2022-11-15T08:51:45;86.60;;;35.20;;
15049;SDS011;7622;42.724;23.250;2022-11-15T08:54:12;84.03;;;35.50;;
15049;SDS011;7622;42.724;23.250;2022-11-15T08:56:39;74.27;;;33.83;;
15049;SDS011;7622;42.724;23.250;2022-11-15T08:59:06;89.97;;;38.57;;
15049;SDS011;7622;42.724;23.250;2022-11-15T09:01:33;85.77;;;36.70;;
15049;SDS011;7622;42.724;23.250;2022-11-15T09:04:01;92.43;;;38.60;;
15049;SDS011;7622;42.724;23.250;2022-11-15T09:06:29;100.20;;;41.83;;
15049;SDS011;7622;42.724;23.250;2022-11-15T09:08:56;110.97;;;42.73;;
15049;SDS011;7622;42.724;23.250;2022-11-15T09:11:23;105.30;;;45.27;;
15049;SDS011;7622;42.724;23.250;2022-11-15T09:13:50;117.17;;;44.37;;
15049;SDS011;7622;42.724;23.250;2022-11-15T09:16:16;137.80;;;46.97;;
15049;SDS011;7622;42.724;23.250;2022-11-15T09:18:43;117.03;;;47.93;;
15049;SDS011;7622;42.724;23.250;2022-11-15T09:21:11;116.93;;;47.00;;
15049;SDS011;7622;42.724;23.250;2022-11-15T09:23:38;129.43;;;47.77;;
15049;SDS011;7622;42.724;23.250;2022-11-15T09:26:05;121.40;;;49.43;;
15049;SDS011;7622;42.724;23.250;2022-11-15T09:28:33;135.97;;;51.53;;
15049;SDS011;7622;42.724;23.250;2022-11-15T09:31:01;133.90;;;53.03;;
15049;SDS011;7622;42.724;23.250;2022-11-15T09:33:28;115.10;;;47.40;;
15049;SDS011;7622;42.724;23.250;2022-11-15T09:35:59;138.40;;;51.27;;
15049;SDS011;7622;42.724;23.250;2022-11-15T09:38:28;166.60;;;56.10;;
15049;SDS011;7622;42.724;23.250;2022-11-15T09:40:58;158.97;;;57.73;;
15049;SDS011;7622;42.724;23.250;2022-11-15T09:43:42;142.93;;;57.67;;
15049;SDS011;7622;42.724;23.250;2022-11-15T09:46:19;151.57;;;56.67;;
15049;SDS011;7622;42.724;23.250;2022-11-15T09:48:53;151.07;;;59.77;;
15049;SDS011;7622;42.724;23.250;2022-11-15T09:51:26;149.67;;;56.63;;
15049;SDS011;7622;42.724;23.250;2022-11-15T09:53:58;150.60;;;55.73;;
15049;SDS011;7622;42.724;23.250;2022-11-15T09:56:31;146.10;;;53.80;;
15049;SDS011;7622;42.724;23.250;2022-11-15T09:59:04;146.90;;;53.40;;
15049;SDS011;7622;42.724;23.250;2022-11-15T10:01:44;143.43;;;56.60;;
15049;SDS011;7622;42.724;23.250;2022-11-15T10:04:20;142.90;;;56.17;;
15049;SDS011;7622;42.724;23.250;2022-11-15T10:06:49;129.60;;;52.97;;
15049;SDS011;7622;42.724;23.250;2022-11-15T10:09:23;134.60;;;53.87;;
15049;SDS011;7622;42.724;23.250;2022-11-15T10:11:52;138.80;;;52.50;;
15049;SDS011;7622;42.724;23.250;2022-11-15T10:14:20;150.33;;;55.47;;
15049;SDS011;7622;42.724;23.250;2022-11-15T10:17:02;133.10;;;53.67;;
15049;SDS011;7622;42.724;23.250;2022-11-15T10:20:02;135.43;;;53.70;;
15049;SDS011;7622;42.724;23.250;2022-11-15T10:22:38;149.70;;;55.03;;
15049;SDS011;7622;42.724;23.250;2022-11-15T10:25:12;142.30;;;54.37;;
15049;SDS011;7622;42.724;23.250;2022-11-15T10:27:44;134.73;;;57.13;;
15049;SDS011;7622;42.724;23.250;2022-11-15T10:30:17;150.37;;;55.67;;
15049;SDS011;7622;42.724;23.250;2022-11-15T10:32:45;137.73;;;54.50;;
15049;SDS011;7622;42.724;23.250;2022-11-15T10:35:21;144.53;;;55.77;;
15049;SDS011;7622;42.724;23.250;2022-11-15T10:37:51;137.37;;;58.47;;
15049;SDS011;7622;42.724;23.250;2022-11-15T10:40:20;138.27;;;58.80;;
15049;SDS011;7622;42.724;23.250;2022-11-15T10:42:48;161.57;;;58.50;;
15049;SDS011;7622;42.724;23.250;2022-11-15T10:45:31;145.23;;;58.83;;
15049;SDS011;7622;42.724;23.250;2022-11-15T10:50:46;156.47;;;59.87;;
15049;SDS011;7622;42.724;23.250;2022-11-15T10:53:16;150.10;;;59.13;;
15049;SDS011;7622;42.724;23.250;2022-11-15T10:55:49;140.20;;;61.17;;
15049;SDS011;7622;42.724;23.250;2022-11-15T10:58:20;135.20;;;59.90;;
15049;SDS011;7622;42.724;23.250;2022-11-15T11:00:53;144.53;;;57.80;;
15049;SDS011;7622;42.724;23.250;2022-11-15T11:03:29;130.40;;;57.90;;
15049;SDS011;7622;42.724;23.250;2022-11-15T11:06:04;137.17;;;58.60;;
15049;SDS011;7622;42.724;23.250;2022-11-15T11:08:32;133.23;;;60.27;;
15049;SDS011;7622;42.724;23.250;2022-11-15T11:11:01;119.03;;;56.73;;
15049;SDS011;7622;42.724;23.250;2022-11-15T11:13:30;123.43;;;54.47;;
15049;SDS011;7622;42.724;23.250;2022-11-15T11:16:02;120.70;;;57.60;;
15049;SDS011;7622;42.724;23.250;2022-11-15T11:18:48;110.63;;;51.93;;
15049;SDS011;7622;42.724;23.250;2022-11-15T11:21:25;109.30;;;51.57;;
15049;SDS011;7622;42.724;23.250;2022-11-15T11:23:58;109.17;;;52.10;;
15049;SDS011;7622;42.724;23.250;2022-11-15T11:26:38;125.07;;;52.40;;
15049;SDS011;7622;42.724;23.250;2022-11-15T11:29:16;98.67;;;48.93;;
15049;SDS011;7622;42.724;23.250;2022-11-15T11:31:54;94.23;;;48.37;;
15049;SDS011;7622;42.724;23.250;2022-11-15T11:34:33;94.37;;;47.90;;
15049;SDS011;7622;42.724;23.250;2022-11-15T11:37:09;102.73;;;49.60;;
15049;SDS011;7622;42.724;23.250;2022-11-15T11:39:42;99.03;;;47.50;;
15049;SDS011;7622;42.724;23.250;2022-11-15T11:42:23;103.17;;;50.97;;
15049;SDS011;7622;42.724;23.250;2022-11-15T11:44:57;103.63;;;50.70;;
15049;SDS011;7622;42.724;23.250;2022-11-15T11:47:30;100.13;;;48.90;;
15049;SDS011;7622;42.724;23.250;2022-11-15T11:50:00;89.07;;;48.10;;
15049;SDS011;7622;42.724;23.250;2022-11-15T11:52:38;89.57;;;45.93;;
15049;SDS011;7622;42.724;23.250;2022-11-15T11:55:12;95.13;;;47.40;;
15049;SDS011;7622;42.724;23.250;2022-11-15T11:57:45;94.27;;;48.23;;
15049;SDS011;7622;42.724;23.250;2022-11-15T12:00:18;89.40;;;48.53;;
15049;SDS011;7622;42.724;23.250;2022-11-15T12:02:47;104.10;;;50.20;;
15049;SDS011;7622;42.724;23.250;2022-11-15T12:05:22;91.80;;;46.23;;
15049;SDS011;7622;42.724;23.250;2022-11-15T12:07:58;95.57;;;48.70;;
15049;SDS011;7622;42.724;23.250;2022-11-15T12:10:30;90.37;;;48.53;;
15049;SDS011;7622;42.724;23.250;2022-11-15T12:13:04;87.77;;;47.23;;
15049;SDS011;7622;42.724;23.250;2022-11-15T12:15:37;96.40;;;48.47;;
15049;SDS011;7622;42.724;23.250;2022-11-15T12:18:08;98.90;;;50.43;;
15049;SDS011;7622;42.724;23.250;2022-11-15T12:20:41;96.67;;;51.07;;
15049;SDS011;7622;42.724;23.250;2022-11-15T12:23:17;122.30;;;51.57;;
15049;SDS011;7622;42.724;23.250;2022-11-15T12:25:50;96.13;;;49.03;;
15049;SDS011;7622;42.724;23.250;2022-11-15T12:28:27;104.20;;;50.47;;
15049;SDS011;7622;42.724;23.250;2022-11-15T12:31:04;132.57;;;51.23;;
15049;SDS011;7622;42.724;23.250;2022-11-15T12:33:38;107.23;;;52.27;;
15049;SDS011;7622;42.724;23.250;2022-11-15T12:36:09;103.17;;;51.93;;
15049;SDS011;7622;42.724;23.250;2022-11-15T12:38:51;99.60;;;48.40;;
15049;SDS011;7622;42.724;23.250;2022-11-15T12:41:21;101.63;;;49.90;;
15049;SDS011;7622;42.724;23.250;2022-11-15T12:43:51;90.87;;;48.30;;
15049;SDS011;7622;42.724;23.250;2022-11-15T12:52:11;113.40;;;50.03;;
15049;SDS011;7622;42.724;23.250;2022-11-15T12:54:54;104.90;;;48.83;;
15049;SDS011;7622;42.724;23.250;2022-11-15T12:57:30;95.67;;;46.83;;
15049;SDS011;7622;42.724;23.250;2022-11-15T13:00:36;95.23;;;47.03;;
15049;SDS011;7622;42.724;23.250;2022-11-15T13:05:53;93.67;;;46.23;;
15049;SDS011;7622;42.724;23.250;2022-11-15T13:08:43;93.10;;;46.33;;
15049;SDS011;7622;42.724;23.250;2022-11-15T13:17:33;92.20;;;44.73;;
15049;SDS011;7622;42.724;23.250;2022-11-15T13:20:16;89.90;;;46.13;;
15049;SDS011;7622;42.724;23.250;2022-11-15T13:22:45;95.63;;;46.63;;
15049;SDS011;7622;42.724;23.250;2022-11-15T13:25:18;81.40;;;43.83;;
15049;SDS011;7622;42.724;23.250;2022-11-15T13:27:49;95.07;;;45.80;;
15049;SDS011;7622;42.724;23.250;2022-11-15T13:30:19;84.93;;;46.93;;
15049;SDS011;7622;42.724;23.250;2022-11-15T13:32:49;80.63;;;43.03;;
15049;SDS011;7622;42.724;23.250;2022-11-15T13:35:21;99.07;;;44.00;;
15049;SDS011;7622;42.724;23.250;2022-11-15T13:37:49;80.63;;;41.67;;
15049;SDS011;7622;42.724;23.250;2022-11-15T13:40:21;81.67;;;40.80;;
15049;SDS011;7622;42.724;23.250;2022-11-15T13:42:52;84.20;;;41.83;;
15049;SDS011;7622;42.724;23.250;2022-11-15T13:45:19;72.90;;;39.77;;
15049;SDS011;7622;42.724;23.250;2022-11-15T13:47:52;84.47;;;40.60;;
15049;SDS011;7622;42.724;23.250;2022-11-15T13:50:21;82.00;;;39.43;;
15049;SDS011;7622;42.724;23.250;2022-11-15T13:52:51;77.17;;;39.97;;
15049;SDS011;7622;42.724;23.250;2022-11-15T13:55:20;73.37;;;42.20;;
15049;SDS011;7622;42.724;23.250;2022-11-15T13:57:49;73.00;;;39.63;;
15049;SDS011;7622;42.724;23.250;2022-11-15T14:00:27;76.60;;;40.37;;
15049;SDS011;7622;42.724;23.250;2022-11-15T14:03:05;70.93;;;37.90;;
15049;SDS011;7622;42.724;23.250;2022-11-15T14:05:34;71.03;;;36.90;;
15049;SDS011;7622;42.724;23.250;2022-11-15T14:08:02;71.43;;;39.67;;
15049;SDS011;7622;42.724;23.250;2022-11-15T14:10:38;84.00;;;40.97;;
15049;SDS011;7622;42.724;23.250;2022-11-15T14:13:10;76.23;;;39.90;;
15049;SDS011;7622;42.724;23.250;2022-11-15T14:15:53;80.13;;;40.53;;
15049;SDS011;7622;42.724;23.250;2022-11-15T14:21:10;77.70;;;39.73;;
15049;SDS011;7622;42.724;23.250;2022-11-15T14:23:37;82.67;;;39.83;;
15049;SDS011;7622;42.724;23.250;2022-11-15T14:26:04;77.40;;;41.07;;
15049;SDS011;7622;42.724;23.250;2022-11-15T14:28:31;86.50;;;41.30;;
15049;SDS011;7622;42.724;23.250;2022-11-15T14:31:06;88.70;;;42.53;;
15049;SDS011;7622;42.724;23.250;2022-11-15T14:33:38;82.50;;;41.40;;
15049;SDS011;7622;42.724;23.250;2022-11-15T14:36:10;86.73;;;43.03;;
15049;SDS011;7622;42.724;23.250;2022-11-15T14:38:38;86.43;;;41.37;;
15049;SDS011;7622;42.724;23.250;2022-11-15T14:41:10;94.90;;;42.43;;
15049;SDS011;7622;42.724;23.250;2022-11-15T14:43:47;88.93;;;40.90;;
15049;SDS011;7622;42.724;23.250;2022-11-15T14:46:15;92.03;;;42.27;;
15049;SDS011;7622;42.724;23.250;2022-11-15T14:48:41;80.90;;;40.40;;
15049;SDS011;7622;42.724;23.250;2022-11-15T14:51:11;82.97;;;41.70;;
15049;SDS011;7622;42.724;23.250;2022-11-15T14:53:40;81.83;;;41.20;;
15049;SDS011;7622;42.724;23.250;2022-11-15T14:56:07;77.47;;;40.47;;
15049;SDS011;7622;42.724;23.250;2022-11-15T14:58:34;91.20;;;43.27;;
15049;SDS011;7622;42.724;23.250;2022-11-15T15:01:01;85.53;;;44.67;;
15049;SDS011;7622;42.724;23.250;2022-11-15T15:03:29;100.23;;;42.47;;